sensor_id;sensor_type;location;lat;lon;timestamp;pressure;altitude;pressure_sealevel;temperature;humidity
38852;BME280;24605;50.092;9.182;2023-01-26T00:01:08;98519.53;;;-1.44;100.00
38852;BME280;24605;50.092;9.182;2023-01-26T00:03:35;98523.53;;;-1.22;100.00
38852;BME280;24605;50.092;9.182;2023-01-26T00:06:03;98519.00;;;-1.17;100.00
38852;BME280;24605;50.092;9.182;2023-01-26T00:08:34;98497.50;;;-1.32;100.00
38852;BME280;24605;50.092;9.182;2023-01-26T00:11:02;98514.69;;;-1.16;100.00
38852;BME280;24605;50.092;9.182;2023-01-26T00:13:29;98510.38;;;-1.16;100.00
38852;BME280;24605;50.092;9.182;2023-01-26T00:15:55;98461.88;;;-1.39;100.00
38852;BME280;24605;50.092;9.182;2023-01-26T00:18:22;98503.00;;;-1.06;100.00
38852;BME280;24605;50.092;9.182;2023-01-26T00:20:54;98494.19;;;-1.18;100.00
38852;BME280;24605;50.092;9.182;2023-01-26T00:23:20;98494.09;;;-1.16;100.00
38852;BME280;24605;50.092;9.182;2023-01-26T00:25:48;98487.06;;;-1.13;100.00
38852;BME280;24605;50.092;9.182;2023-01-26T00:28:15;98497.16;;;-1.26;100.00
38852;BME280;24605;50.092;9.182;2023-01-26T00:30:41;98496.75;;;-1.18;100.00
38852;BME280;24605;50.092;9.182;2023-01-26T00:33:08;98495.38;;;-1.07;100.00
38852;BME280;24605;50.092;9.182;2023-01-26T00:35:34;98485.31;;;-0.96;100.00
38852;BME280;24605;50.092;9.182;2023-01-26T00:38:01;98487.06;;;-0.81;100.00
38852;BME280;24605;50.092;9.182;2023-01-26T00:40:27;98486.91;;;-0.93;100.00
38852;BME280;24605;50.092;9.182;2023-01-26T00:42:55;98484.41;;;-1.11;100.00
38852;BME280;24605;50.092;9.182;2023-01-26T00:45:23;98488.97;;;-1.32;100.00
38852;BME280;24605;50.092;9.182;2023-01-26T00:47:49;98483.28;;;-1.23;100.00
38852;BME280;24605;50.092;9.182;2023-01-26T00:50:16;98483.88;;;-1.34;100.00
38852;BME280;24605;50.092;9.182;2023-01-26T00:52:42;98479.72;;;-1.36;100.00
38852;BME280;24605;50.092;9.182;2023-01-26T00:55:09;98485.88;;;-1.23;100.00
38852;BME280;24605;50.092;9.182;2023-01-26T00:57:35;98480.84;;;-1.08;100.00
38852;BME280;24605;50.092;9.182;2023-01-26T01:00:05;98479.66;;;-1.19;100.00
38852;BME280;24605;50.092;9.182;2023-01-26T01:02:33;98474.38;;;-1.16;100.00
38852;BME280;24605;50.092;9.182;2023-01-26T01:05:00;98490.19;;;-1.23;100.00
38852;BME280;24605;50.092;9.182;2023-01-26T01:07:27;98461.38;;;-1.46;100.00
38852;BME280;24605;50.092;9.182;2023-01-26T01:09:54;98434.22;;;-1.68;100.00
38852;BME280;24605;50.092;9.182;2023-01-26T01:12:20;98476.72;;;-1.45;100.00
38852;BME280;24605;50.092;9.182;2023-01-26T01:14:47;98476.88;;;-1.48;100.00
38852;BME280;24605;50.092;9.182;2023-01-26T01:17:15;98471.44;;;-1.42;100.00
38852;BME280;24605;50.092;9.182;2023-01-26T01:19:41;98423.13;;;-1.68;100.00
38852;BME280;24605;50.092;9.182;2023-01-26T01:22:08;98441.06;;;-1.51;100.00
38852;BME280;24605;50.092;9.182;2023-01-26T01:24:35;98473.00;;;-1.23;100.00
38852;BME280;24605;50.092;9.182;2023-01-26T01:27:02;98403.03;;;-1.78;100.00
38852;BME280;24605;50.092;9.182;2023-01-26T01:29:28;98478.22;;;-1.40;100.00
38852;BME280;24605;50.092;9.182;2023-01-26T01:31:55;98480.81;;;-1.58;100.00
38852;BME280;24605;50.092;9.182;2023-01-26T01:34:22;98381.03;;;-2.17;100.00
38852;BME280;24605;50.092;9.182;2023-01-26T01:36:49;98474.63;;;-1.54;100.00
38852;BME280;24605;50.092;9.182;2023-01-26T01:39:16;98435.06;;;-1.51;100.00
38852;BME280;24605;50.092;9.182;2023-01-26T01:41:43;98423.94;;;-1.68;100.00
38852;BME280;24605;50.092;9.182;2023-01-26T01:44:11;98472.25;;;-1.41;100.00
38852;BME280;24605;50.092;9.182;2023-01-26T01:46:39;98395.47;;;-1.81;100.00
38852;BME280;24605;50.092;9.182;2023-01-26T01:49:14;98386.47;;;-2.06;100.00
38852;BME280;24605;50.092;9.182;2023-01-26T01:51:48;98471.59;;;-1.45;100.00
38852;BME280;24605;50.092;9.182;2023-01-26T01:54:19;98481.25;;;-1.32;100.00
38852;BME280;24605;50.092;9.182;2023-01-26T01:56:51;98371.34;;;-1.94;100.00
38852;BME280;24605;50.092;9.182;2023-01-26T01:59:20;98467.91;;;-1.40;100.00
38852;BME280;24605;50.092;9.182;2023-01-26T02:01:47;98469.44;;;-1.36;100.00
38852;BME280;24605;50.092;9.182;2023-01-26T02:04:15;98450.81;;;-1.58;100.00
38852;BME280;24605;50.092;9.182;2023-01-26T02:06:46;98431.88;;;-1.73;100.00
38852;BME280;24605;50.092;9.182;2023-01-26T02:09:15;98460.59;;;-1.64;100.00
38852;BME280;24605;50.092;9.182;2023-01-26T02:11:55;98457.41;;;-1.52;100.00
38852;BME280;24605;50.092;9.182;2023-01-26T02:14:24;98365.38;;;-2.12;100.00
38852;BME280;24605;50.092;9.182;2023-01-26T02:16:51;98468.22;;;-1.63;100.00
38852;BME280;24605;50.092;9.182;2023-01-26T02:19:21;98451.50;;;-1.54;100.00
38852;BME280;24605;50.092;9.182;2023-01-26T02:21:59;98352.25;;;-2.24;100.00
38852;BME280;24605;50.092;9.182;2023-01-26T02:24:33;98452.13;;;-1.66;100.00
38852;BME280;24605;50.092;9.182;2023-01-26T02:27:03;98365.28;;;-2.27;100.00
38852;BME280;24605;50.092;9.182;2023-01-26T02:29:30;98448.19;;;-1.74;100.00
38852;BME280;24605;50.092;9.182;2023-01-26T02:31:56;98384.50;;;-2.18;100.00
38852;BME280;24605;50.092;9.182;2023-01-26T02:34:23;98335.28;;;-2.26;100.00
38852;BME280;24605;50.092;9.182;2023-01-26T02:36:56;98437.22;;;-1.60;100.00
38852;BME280;24605;50.092;9.182;2023-01-26T02:39:33;98397.53;;;-1.87;100.00
38852;BME280;24605;50.092;9.182;2023-01-26T02:42:04;98376.00;;;-2.02;100.00
38852;BME280;24605;50.092;9.182;2023-01-26T02:44:54;98432.47;;;-1.67;100.00
38852;BME280;24605;50.092;9.182;2023-01-26T02:47:20;98421.72;;;-1.92;100.00
38852;BME280;24605;50.092;9.182;2023-01-26T02:49:47;98336.66;;;-2.37;100.00
38852;BME280;24605;50.092;9.182;2023-01-26T02:52:13;98342.31;;;-2.30;100.00
38852;BME280;24605;50.092;9.182;2023-01-26T02:54:40;98394.69;;;-1.99;100.00
38852;BME280;24605;50.092;9.182;2023-01-26T02:57:25;98327.59;;;-2.44;100.00
38852;BME280;24605;50.092;9.182;2023-01-26T02:59:52;98402.56;;;-2.19;100.00
38852;BME280;24605;50.092;9.182;2023-01-26T03:02:19;98402.63;;;-2.03;100.00
38852;BME280;24605;50.092;9.182;2023-01-26T03:04:45;98406.97;;;-1.88;100.00
38852;BME280;24605;50.092;9.182;2023-01-26T03:07:12;98313.53;;;-2.37;100.00
38852;BME280;24605;50.092;9.182;2023-01-26T03:09:38;98397.13;;;-1.80;100.00
38852;BME280;24605;50.092;9.182;2023-01-26T03:12:05;98394.16;;;-2.06;100.00
38852;BME280;24605;50.092;9.182;2023-01-26T03:14:33;98287.31;;;-2.59;100.00
38852;BME280;24605;50.092;9.182;2023-01-26T03:16:59;98285.50;;;-2.57;100.00
38852;BME280;24605;50.092;9.182;2023-01-26T03:19:26;98390.09;;;-2.10;100.00
38852;BME280;24605;50.092;9.182;2023-01-26T03:22:10;98278.28;;;-2.66;100.00
38852;BME280;24605;50.092;9.182;2023-01-26T03:24:55;98329.50;;;-2.47;100.00
38852;BME280;24605;50.092;9.182;2023-01-26T03:27:48;98274.34;;;-2.56;100.00
38852;BME280;24605;50.092;9.182;2023-01-26T03:30:17;98352.06;;;-2.03;100.00
38852;BME280;24605;50.092;9.182;2023-01-26T03:32:44;98281.81;;;-2.52;100.00
38852;BME280;24605;50.092;9.182;2023-01-26T03:35:10;98297.59;;;-2.26;100.00
38852;BME280;24605;50.092;9.182;2023-01-26T03:37:39;98298.50;;;-2.78;100.00
38852;BME280;24605;50.092;9.182;2023-01-26T03:40:09;98388.41;;;-2.11;100.00
38852;BME280;24605;50.092;9.182;2023-01-26T03:42:54;98361.78;;;-2.08;100.00
38852;BME280;24605;50.092;9.182;2023-01-26T03:45:39;98359.88;;;-2.05;100.00
38852;BME280;24605;50.092;9.182;2023-01-26T03:48:23;98357.78;;;-2.14;100.00
38852;BME280;24605;50.092;9.182;2023-01-26T03:51:07;98382.84;;;-2.19;100.00
38852;BME280;24605;50.092;9.182;2023-01-26T03:53:51;98290.94;;;-2.63;100.00
38852;BME280;24605;50.092;9.182;2023-01-26T03:56:35;98380.75;;;-1.95;100.00
38852;BME280;24605;50.092;9.182;2023-01-26T03:59:04;98339.41;;;-2.24;100.00
38852;BME280;24605;50.092;9.182;2023-01-26T04:01:35;98268.25;;;-2.71;100.00
38852;BME280;24605;50.092;9.182;2023-01-26T04:04:02;98353.25;;;-2.26;100.00
38852;BME280;24605;50.092;9.182;2023-01-26T04:06:48;98295.16;;;-2.80;100.00
38852;BME280;24605;50.092;9.182;2023-01-26T04:09:32;98369.09;;;-2.18;100.00
38852;BME280;24605;50.092;9.182;2023-01-26T04:11:58;98265.59;;;-2.87;100.00
38852;BME280;24605;50.092;9.182;2023-01-26T04:14:25;98253.84;;;-2.74;100.00
38852;BME280;24605;50.092;9.182;2023-01-26T04:17:11;98265.69;;;-2.71;100.00
38852;BME280;24605;50.092;9.182;2023-01-26T04:19:54;98358.47;;;-2.28;100.00
38852;BME280;24605;50.092;9.182;2023-01-26T04:22:40;98351.75;;;-2.30;100.00
38852;BME280;24605;50.092;9.182;2023-01-26T04:25:11;98347.81;;;-2.38;100.00
38852;BME280;24605;50.092;9.182;2023-01-26T04:27:38;98272.72;;;-2.92;100.00
38852;BME280;24605;50.092;9.182;2023-01-26T04:30:06;98301.06;;;-2.78;100.00
38852;BME280;24605;50.092;9.182;2023-01-26T04:32:34;98337.34;;;-2.86;100.00
38852;BME280;24605;50.092;9.182;2023-01-26T04:35:01;98249.84;;;-3.32;100.00
38852;BME280;24605;50.092;9.182;2023-01-26T04:37:28;98333.19;;;-2.71;100.00
38852;BME280;24605;50.092;9.182;2023-01-26T04:39:55;98343.63;;;-2.56;100.00
38852;BME280;24605;50.092;9.182;2023-01-26T04:42:21;98259.13;;;-3.12;100.00
38852;BME280;24605;50.092;9.182;2023-01-26T04:44:49;98263.56;;;-3.16;100.00
38852;BME280;24605;50.092;9.182;2023-01-26T04:47:15;98220.53;;;-3.26;100.00
38852;BME280;24605;50.092;9.182;2023-01-26T04:49:43;98232.34;;;-3.24;100.00
38852;BME280;24605;50.092;9.182;2023-01-26T04:52:10;98339.63;;;-2.62;100.00
38852;BME280;24605;50.092;9.182;2023-01-26T04:54:37;98329.13;;;-2.57;100.00
38852;BME280;24605;50.092;9.182;2023-01-26T04:57:04;98235.06;;;-2.92;100.00
38852;BME280;24605;50.092;9.182;2023-01-26T04:59:30;98227.97;;;-2.87;100.00
38852;BME280;24605;50.092;9.182;2023-01-26T05:01:57;98228.66;;;-2.83;100.00
38852;BME280;24605;50.092;9.182;2023-01-26T05:04:23;98316.44;;;-2.43;100.00
38852;BME280;24605;50.092;9.182;2023-01-26T05:06:51;98253.31;;;-2.80;100.00
38852;BME280;24605;50.092;9.182;2023-01-26T05:09:17;98327.16;;;-2.70;100.00
38852;BME280;24605;50.092;9.182;2023-01-26T05:11:44;98228.00;;;-3.04;100.00
38852;BME280;24605;50.092;9.182;2023-01-26T05:14:10;98259.88;;;-2.92;100.00
38852;BME280;24605;50.092;9.182;2023-01-26T05:16:37;98330.03;;;-2.58;100.00
38852;BME280;24605;50.092;9.182;2023-01-26T05:19:03;98333.06;;;-2.50;100.00
38852;BME280;24605;50.092;9.182;2023-01-26T05:21:30;98332.66;;;-2.60;100.00
38852;BME280;24605;50.092;9.182;2023-01-26T05:23:58;98334.53;;;-2.46;100.00
38852;BME280;24605;50.092;9.182;2023-01-26T05:26:24;98336.53;;;-2.51;100.00
38852;BME280;24605;50.092;9.182;2023-01-26T05:28:51;98328.16;;;-2.55;100.00
38852;BME280;24605;50.092;9.182;2023-01-26T05:31:17;98335.31;;;-2.44;100.00
38852;BME280;24605;50.092;9.182;2023-01-26T05:33:43;98344.38;;;-2.54;100.00
38852;BME280;24605;50.092;9.182;2023-01-26T05:36:10;98343.69;;;-2.40;100.00
38852;BME280;24605;50.092;9.182;2023-01-26T05:38:36;98339.09;;;-2.51;100.00
38852;BME280;24605;50.092;9.182;2023-01-26T05:41:05;98336.75;;;-2.56;100.00
38852;BME280;24605;50.092;9.182;2023-01-26T05:43:32;98338.84;;;-2.46;100.00
38852;BME280;24605;50.092;9.182;2023-01-26T05:45:58;98345.25;;;-2.38;100.00
38852;BME280;24605;50.092;9.182;2023-01-26T05:48:25;98273.84;;;-2.80;100.00
38852;BME280;24605;50.092;9.182;2023-01-26T05:50:54;98345.75;;;-2.47;100.00
38852;BME280;24605;50.092;9.182;2023-01-26T05:53:21;98344.91;;;-2.47;100.00
38852;BME280;24605;50.092;9.182;2023-01-26T05:55:48;98342.34;;;-2.83;100.00
38852;BME280;24605;50.092;9.182;2023-01-26T05:58:15;98344.81;;;-2.81;100.00
38852;BME280;24605;50.092;9.182;2023-01-26T06:00:42;98355.06;;;-2.81;100.00
38852;BME280;24605;50.092;9.182;2023-01-26T06:03:08;98348.28;;;-2.82;100.00
38852;BME280;24605;50.092;9.182;2023-01-26T06:05:36;98353.91;;;-2.74;100.00
38852;BME280;24605;50.092;9.182;2023-01-26T06:08:03;98365.06;;;-2.57;100.00
38852;BME280;24605;50.092;9.182;2023-01-26T06:10:29;98349.59;;;-2.56;100.00
38852;BME280;24605;50.092;9.182;2023-01-26T06:12:56;98367.63;;;-2.40;100.00
38852;BME280;24605;50.092;9.182;2023-01-26T06:15:24;98363.97;;;-2.88;100.00
38852;BME280;24605;50.092;9.182;2023-01-26T06:17:51;98365.50;;;-2.84;100.00
38852;BME280;24605;50.092;9.182;2023-01-26T06:20:18;98370.56;;;-2.65;100.00
38852;BME280;24605;50.092;9.182;2023-01-26T06:22:44;98368.13;;;-2.86;100.00
38852;BME280;24605;50.092;9.182;2023-01-26T06:25:11;98368.84;;;-2.64;100.00
38852;BME280;24605;50.092;9.182;2023-01-26T06:27:37;98369.06;;;-2.52;100.00
38852;BME280;24605;50.092;9.182;2023-01-26T06:30:07;98373.81;;;-2.44;100.00
38852;BME280;24605;50.092;9.182;2023-01-26T06:32:35;98355.31;;;-2.50;100.00
38852;BME280;24605;50.092;9.182;2023-01-26T06:35:02;98371.69;;;-2.36;100.00
38852;BME280;24605;50.092;9.182;2023-01-26T06:37:30;98362.06;;;-2.48;100.00
38852;BME280;24605;50.092;9.182;2023-01-26T06:39:57;98369.28;;;-2.39;100.00
38852;BME280;24605;50.092;9.182;2023-01-26T06:42:24;98379.16;;;-2.48;100.00
38852;BME280;24605;50.092;9.182;2023-01-26T06:44:50;98346.34;;;-2.77;100.00
38852;BME280;24605;50.092;9.182;2023-01-26T06:47:17;98374.03;;;-2.66;100.00
38852;BME280;24605;50.092;9.182;2023-01-26T06:49:44;98370.78;;;-2.52;100.00
38852;BME280;24605;50.092;9.182;2023-01-26T06:52:25;98372.81;;;-2.59;100.00
38852;BME280;24605;50.092;9.182;2023-01-26T06:54:52;98372.16;;;-2.62;100.00
38852;BME280;24605;50.092;9.182;2023-01-26T06:57:19;98376.78;;;-2.69;100.00
38852;BME280;24605;50.092;9.182;2023-01-26T06:59:45;98368.88;;;-2.31;100.00
38852;BME280;24605;50.092;9.182;2023-01-26T07:02:15;98367.19;;;-2.14;100.00
38852;BME280;24605;50.092;9.182;2023-01-26T07:04:42;98353.00;;;-2.22;100.00
38852;BME280;24605;50.092;9.182;2023-01-26T07:07:10;98374.19;;;-2.16;100.00
38852;BME280;24605;50.092;9.182;2023-01-26T07:09:37;98379.06;;;-2.12;100.00
38852;BME280;24605;50.092;9.182;2023-01-26T07:12:03;98380.59;;;-2.25;100.00
38852;BME280;24605;50.092;9.182;2023-01-26T07:14:30;98377.25;;;-2.10;100.00
38852;BME280;24605;50.092;9.182;2023-01-26T07:16:57;98382.47;;;-2.29;100.00
38852;BME280;24605;50.092;9.182;2023-01-26T07:19:23;98374.03;;;-2.31;100.00
38852;BME280;24605;50.092;9.182;2023-01-26T07:21:50;98381.72;;;-2.31;100.00
38852;BME280;24605;50.092;9.182;2023-01-26T07:24:17;98381.13;;;-2.36;100.00
38852;BME280;24605;50.092;9.182;2023-01-26T07:26:45;98382.94;;;-2.38;100.00
38852;BME280;24605;50.092;9.182;2023-01-26T07:29:12;98397.53;;;-2.39;100.00
38852;BME280;24605;50.092;9.182;2023-01-26T07:31:38;98387.16;;;-2.19;100.00
38852;BME280;24605;50.092;9.182;2023-01-26T07:34:05;98391.75;;;-2.26;100.00
38852;BME280;24605;50.092;9.182;2023-01-26T07:36:32;98390.19;;;-2.46;100.00
38852;BME280;24605;50.092;9.182;2023-01-26T07:38:58;98394.66;;;-2.32;100.00
38852;BME280;24605;50.092;9.182;2023-01-26T07:41:26;98386.03;;;-2.14;100.00
38852;BME280;24605;50.092;9.182;2023-01-26T07:43:52;98381.78;;;-2.15;100.00
38852;BME280;24605;50.092;9.182;2023-01-26T07:46:19;98378.88;;;-1.91;100.00
38852;BME280;24605;50.092;9.182;2023-01-26T07:48:45;98384.84;;;-1.75;100.00
38852;BME280;24605;50.092;9.182;2023-01-26T07:51:12;98379.44;;;-2.02;100.00
38852;BME280;24605;50.092;9.182;2023-01-26T07:53:38;98377.00;;;-2.05;100.00
38852;BME280;24605;50.092;9.182;2023-01-26T07:56:09;98380.41;;;-2.05;100.00
38852;BME280;24605;50.092;9.182;2023-01-26T07:58:37;98379.81;;;-2.10;100.00
38852;BME280;24605;50.092;9.182;2023-01-26T08:01:08;98384.81;;;-2.24;100.00
38852;BME280;24605;50.092;9.182;2023-01-26T08:03:35;98382.16;;;-2.23;100.00
38852;BME280;24605;50.092;9.182;2023-01-26T08:06:02;98387.03;;;-2.00;100.00
38852;BME280;24605;50.092;9.182;2023-01-26T08:08:29;98388.19;;;-2.06;100.00
38852;BME280;24605;50.092;9.182;2023-01-26T08:10:56;98391.94;;;-1.96;100.00
38852;BME280;24605;50.092;9.182;2023-01-26T08:13:24;98381.06;;;-1.67;100.00
38852;BME280;24605;50.092;9.182;2023-01-26T08:15:52;98391.47;;;-1.86;100.00
38852;BME280;24605;50.092;9.182;2023-01-26T08:18:19;98389.75;;;-1.86;100.00
38852;BME280;24605;50.092;9.182;2023-01-26T08:20:50;98397.69;;;-1.91;100.00
38852;BME280;24605;50.092;9.182;2023-01-26T08:23:16;98399.03;;;-1.83;100.00
38852;BME280;24605;50.092;9.182;2023-01-26T08:25:42;98395.84;;;-1.89;100.00
38852;BME280;24605;50.092;9.182;2023-01-26T08:28:09;98399.84;;;-1.83;100.00
38852;BME280;24605;50.092;9.182;2023-01-26T08:30:35;98403.59;;;-2.06;100.00
38852;BME280;24605;50.092;9.182;2023-01-26T08:33:04;98402.03;;;-2.09;100.00
38852;BME280;24605;50.092;9.182;2023-01-26T08:35:30;98401.03;;;-2.06;100.00
38852;BME280;24605;50.092;9.182;2023-01-26T08:37:57;98398.63;;;-2.09;100.00
38852;BME280;24605;50.092;9.182;2023-01-26T08:40:24;98407.34;;;-2.12;100.00
38852;BME280;24605;50.092;9.182;2023-01-26T08:42:51;98399.25;;;-2.22;100.00
38852;BME280;24605;50.092;9.182;2023-01-26T08:45:18;98406.41;;;-2.28;100.00
38852;BME280;24605;50.092;9.182;2023-01-26T08:47:47;98207.81;;;-3.65;100.00
38852;BME280;24605;50.092;9.182;2023-01-26T08:50:16;98417.66;;;-2.31;100.00
38852;BME280;24605;50.092;9.182;2023-01-26T08:52:42;98403.78;;;-2.27;100.00
38852;BME280;24605;50.092;9.182;2023-01-26T08:55:09;98408.53;;;-2.19;100.00
38852;BME280;24605;50.092;9.182;2023-01-26T08:57:35;98413.53;;;-2.51;100.00
38852;BME280;24605;50.092;9.182;2023-01-26T09:00:03;98415.25;;;-2.69;100.00
38852;BME280;24605;50.092;9.182;2023-01-26T09:02:29;98411.78;;;-2.50;100.00
38852;BME280;24605;50.092;9.182;2023-01-26T09:04:56;98395.66;;;-2.53;100.00
38852;BME280;24605;50.092;9.182;2023-01-26T09:07:24;98410.41;;;-2.75;100.00
38852;BME280;24605;50.092;9.182;2023-01-26T09:09:50;98419.09;;;-2.60;100.00
38852;BME280;24605;50.092;9.182;2023-01-26T09:12:17;98402.03;;;-2.79;100.00
38852;BME280;24605;50.092;9.182;2023-01-26T09:14:43;98409.97;;;-2.48;100.00
38852;BME280;24605;50.092;9.182;2023-01-26T09:17:10;98397.13;;;-2.31;100.00
38852;BME280;24605;50.092;9.182;2023-01-26T09:19:36;98420.09;;;-2.28;100.00
38852;BME280;24605;50.092;9.182;2023-01-26T09:22:03;98420.47;;;-2.36;100.00
38852;BME280;24605;50.092;9.182;2023-01-26T09:24:30;98408.28;;;-2.14;100.00
38852;BME280;24605;50.092;9.182;2023-01-26T09:26:57;98417.09;;;-2.54;100.00
38852;BME280;24605;50.092;9.182;2023-01-26T09:29:23;98401.13;;;-2.78;100.00
38852;BME280;24605;50.092;9.182;2023-01-26T09:31:50;98422.50;;;-2.60;100.00
38852;BME280;24605;50.092;9.182;2023-01-26T09:34:16;98422.81;;;-2.31;100.00
38852;BME280;24605;50.092;9.182;2023-01-26T09:36:43;98425.78;;;-2.39;100.00
38852;BME280;24605;50.092;9.182;2023-01-26T09:39:09;98427.19;;;-2.50;100.00
38852;BME280;24605;50.092;9.182;2023-01-26T09:41:55;98428.47;;;-2.42;100.00
38852;BME280;24605;50.092;9.182;2023-01-26T09:44:27;98401.13;;;-2.60;100.00
38852;BME280;24605;50.092;9.182;2023-01-26T09:47:03;98420.47;;;-2.53;100.00
38852;BME280;24605;50.092;9.182;2023-01-26T09:49:43;98411.41;;;-2.25;100.00
38852;BME280;24605;50.092;9.182;2023-01-26T09:52:16;98418.75;;;-2.35;100.00
38852;BME280;24605;50.092;9.182;2023-01-26T09:54:49;98426.66;;;-2.22;100.00
38852;BME280;24605;50.092;9.182;2023-01-26T09:57:20;98422.81;;;-2.48;100.00
38852;BME280;24605;50.092;9.182;2023-01-26T09:59:53;98425.06;;;-2.42;100.00
38852;BME280;24605;50.092;9.182;2023-01-26T10:02:32;98424.59;;;-2.68;100.00
38852;BME280;24605;50.092;9.182;2023-01-26T10:05:06;98414.63;;;-2.74;100.00
38852;BME280;24605;50.092;9.182;2023-01-26T10:07:33;98408.75;;;-2.76;100.00
38852;BME280;24605;50.092;9.182;2023-01-26T10:10:01;98421.38;;;-2.54;100.00
38852;BME280;24605;50.092;9.182;2023-01-26T10:12:33;98403.38;;;-2.89;100.00
38852;BME280;24605;50.092;9.182;2023-01-26T10:15:03;98400.47;;;-2.64;100.00
38852;BME280;24605;50.092;9.182;2023-01-26T10:17:34;98402.56;;;-2.72;100.00
38852;BME280;24605;50.092;9.182;2023-01-26T10:20:05;98410.88;;;-2.49;100.00
38852;BME280;24605;50.092;9.182;2023-01-26T10:22:38;98401.81;;;-2.57;100.00
38852;BME280;24605;50.092;9.182;2023-01-26T10:25:13;98402.34;;;-2.50;100.00
38852;BME280;24605;50.092;9.182;2023-01-26T10:27:42;98396.53;;;-2.54;100.00
38852;BME280;24605;50.092;9.182;2023-01-26T10:30:12;98397.38;;;-2.53;100.00
38852;BME280;24605;50.092;9.182;2023-01-26T10:32:41;98391.94;;;-2.64;100.00
38852;BME280;24605;50.092;9.182;2023-01-26T10:35:14;98386.41;;;-2.39;100.00
38852;BME280;24605;50.092;9.182;2023-01-26T10:37:41;98374.88;;;-2.83;100.00
38852;BME280;24605;50.092;9.182;2023-01-26T10:40:08;98389.66;;;-2.53;100.00
38852;BME280;24605;50.092;9.182;2023-01-26T10:42:36;98384.94;;;-2.43;100.00
38852;BME280;24605;50.092;9.182;2023-01-26T10:45:09;98384.25;;;-2.47;100.00
38852;BME280;24605;50.092;9.182;2023-01-26T10:48:01;98384.53;;;-2.53;100.00
38852;BME280;24605;50.092;9.182;2023-01-26T10:50:28;98385.97;;;-2.30;100.00
38852;BME280;24605;50.092;9.182;2023-01-26T10:52:56;98375.91;;;-2.34;100.00
38852;BME280;24605;50.092;9.182;2023-01-26T10:55:23;98381.34;;;-2.23;100.00
38852;BME280;24605;50.092;9.182;2023-01-26T10:57:50;98374.19;;;-2.69;100.00
38852;BME280;24605;50.092;9.182;2023-01-26T11:00:23;98378.94;;;-2.79;100.00
38852;BME280;24605;50.092;9.182;2023-01-26T11:02:51;98373.50;;;-2.73;100.00
38852;BME280;24605;50.092;9.182;2023-01-26T11:05:20;98373.13;;;-2.65;100.00
38852;BME280;24605;50.092;9.182;2023-01-26T11:07:49;98374.09;;;-2.85;100.00
38852;BME280;24605;50.092;9.182;2023-01-26T11:10:24;98368.44;;;-2.57;100.00
38852;BME280;24605;50.092;9.182;2023-01-26T11:13:05;98355.06;;;-2.46;100.00
38852;BME280;24605;50.092;9.182;2023-01-26T11:15:36;98338.78;;;-2.62;100.00
38852;BME280;24605;50.092;9.182;2023-01-26T11:18:12;98360.38;;;-2.66;100.00
38852;BME280;24605;50.092;9.182;2023-01-26T11:20:52;98362.19;;;-2.51;100.00
38852;BME280;24605;50.092;9.182;2023-01-26T11:23:33;98355.16;;;-2.30;100.00
38852;BME280;24605;50.092;9.182;2023-01-26T11:26:35;98350.22;;;-2.17;100.00
38852;BME280;24605;50.092;9.182;2023-01-26T11:29:23;98347.31;;;-2.11;100.00
38852;BME280;24605;50.092;9.182;2023-01-26T11:32:01;98340.88;;;-2.36;100.00
38852;BME280;24605;50.092;9.182;2023-01-26T11:34:36;98339.22;;;-2.37;100.00
38852;BME280;24605;50.092;9.182;2023-01-26T11:37:32;98346.31;;;-2.24;100.00
38852;BME280;24605;50.092;9.182;2023-01-26T11:40:14;98344.94;;;-2.14;100.00
38852;BME280;24605;50.092;9.182;2023-01-26T11:42:46;98336.94;;;-2.25;100.00
38852;BME280;24605;50.092;9.182;2023-01-26T11:45:20;98329.47;;;-2.30;100.00
38852;BME280;24605;50.092;9.182;2023-01-26T11:48:00;98333.63;;;-2.27;100.00
38852;BME280;24605;50.092;9.182;2023-01-26T11:50:33;98331.34;;;-2.16;100.00
38852;BME280;24605;50.092;9.182;2023-01-26T11:53:17;98316.88;;;-2.34;100.00
38852;BME280;24605;50.092;9.182;2023-01-26T11:55:56;98332.47;;;-2.22;100.00
38852;BME280;24605;50.092;9.182;2023-01-26T11:58:30;98283.34;;;-2.31;100.00
38852;BME280;24605;50.092;9.182;2023-01-26T12:01:01;98315.59;;;-2.10;100.00
38852;BME280;24605;50.092;9.182;2023-01-26T12:03:34;98318.66;;;-1.69;100.00
38852;BME280;24605;50.092;9.182;2023-01-26T12:06:06;98317.63;;;-1.67;100.00
38852;BME280;24605;50.092;9.182;2023-01-26T12:08:37;98316.88;;;-1.69;100.00
38852;BME280;24605;50.092;9.182;2023-01-26T12:11:07;98317.06;;;-1.88;100.00
38852;BME280;24605;50.092;9.182;2023-01-26T12:14:04;98312.25;;;-1.62;100.00
38852;BME280;24605;50.092;9.182;2023-01-26T12:16:39;98303.19;;;-1.21;100.00
38852;BME280;24605;50.092;9.182;2023-01-26T12:19:13;98304.94;;;-1.54;100.00
38852;BME280;24605;50.092;9.182;2023-01-26T12:21:43;98302.31;;;-1.68;100.00
38852;BME280;24605;50.092;9.182;2023-01-26T12:24:16;98283.22;;;-1.80;100.00
38852;BME280;24605;50.092;9.182;2023-01-26T12:26:48;98300.47;;;-1.82;100.00
38852;BME280;24605;50.092;9.182;2023-01-26T12:29:18;98301.50;;;-2.02;100.00
38852;BME280;24605;50.092;9.182;2023-01-26T12:31:48;98268.78;;;-2.15;100.00
38852;BME280;24605;50.092;9.182;2023-01-26T12:34:23;98286.28;;;-1.74;100.00
38852;BME280;24605;50.092;9.182;2023-01-26T12:36:59;98279.28;;;-1.23;100.00
38852;BME280;24605;50.092;9.182;2023-01-26T12:39:33;98288.75;;;-1.24;100.00
38852;BME280;24605;50.092;9.182;2023-01-26T12:42:15;98288.28;;;-1.63;100.00
38852;BME280;24605;50.092;9.182;2023-01-26T12:44:45;98285.63;;;-1.61;100.00
38852;BME280;24605;50.092;9.182;2023-01-26T12:47:17;98287.63;;;-1.98;100.00
38852;BME280;24605;50.092;9.182;2023-01-26T12:49:51;98279.91;;;-1.50;100.00
38852;BME280;24605;50.092;9.182;2023-01-26T12:52:25;98280.47;;;-1.93;100.00
38852;BME280;24605;50.092;9.182;2023-01-26T12:54:58;98276.44;;;-1.97;100.00
38852;BME280;24605;50.092;9.182;2023-01-26T12:57:31;98272.19;;;-1.98;100.00
38852;BME280;24605;50.092;9.182;2023-01-26T13:00:04;98272.88;;;-1.79;100.00
38852;BME280;24605;50.092;9.182;2023-01-26T13:02:34;98269.03;;;-2.19;100.00
38852;BME280;24605;50.092;9.182;2023-01-26T13:05:03;98259.25;;;-2.29;100.00